Malvern, Alabama
Current Conditions -  °F | °C
As of 12:53 PM on Thursday 18 Dec 2014 (Local Time) from KDHN Reporting Station
Clear Clear  
Wind Chill: 64°   Ceiling: Unl
Heat Index: 64°   Visibility: 10mi
Dew Point: 28°   Wind: 0mph
Humidity: 26%   Direction: NA
Pressure: 30.15"   Gusts: NA
Location:  31.14°N, 85.52°W
Report Text: KDHN 181853Z 00000KT 10SM CLR 18/M02 A3015 RMK AO2 SLP209 T01781022 $
Loading
Personal Weather Stations






























Interactive Weather Map New forecast layout! Learn more

10-Day Weather Forecast

Advertisements
Track Severe Weather on mobile